Time;durP1;ratioP1;P1;durP2;ratioP2;P2;SDS_P1;SDS_P2;PMS_P1;PMS_P2;Temp;Humidity;BMP_temperature;BMP_pressure;BME280_temperature;BME280_humidity;BME280_pressure;Samples;Min_cycle;Max_cycle;Signal;HPM_P1;HPM_P2
2022/06/14 00:03:04;;;;;;;3.53;3.23;;;;;;;;;;4936849;29;20414;-66
2022/06/14 00:05:30;;;;;;;3.40;3.23;;;;;;;;;;4936729;29;20411;-65
2022/06/14 00:07:56;;;;;;;3.00;2.80;;;;;;;;;;4936711;29;20418;-65
2022/06/14 00:10:22;;;;;;;4.20;3.60;;;;;;;;;;4936614;29;20458;-66
2022/06/14 00:12:48;;;;;;;4.60;3.00;;;;;;;;;;4936622;29;20407;-66
2022/06/14 00:15:15;;;;;;;3.60;3.40;;;;;;;;;;4936615;29;20429;-66
2022/06/14 00:17:41;;;;;;;4.20;3.60;;;;;;;;;;4936596;29;20921;-67
2022/06/14 00:20:07;;;;;;;3.00;2.80;;;;;;;;;;4935204;29;20456;-66
2022/06/14 00:22:34;;;;;;;5.80;3.30;;;;;;;;;;4936535;29;20433;-66
2022/06/14 00:25:00;;;;;;;3.40;3.10;;;;;;;;;;4936470;29;20428;-66
2022/06/14 00:27:26;;;;;;;3.40;3.10;;;;;;;;;;4936484;29;20806;-66
2022/06/14 00:29:52;;;;;;;3.87;3.27;;;;;;;;;;4936435;29;20420;-66
2022/06/14 00:32:18;;;;;;;3.20;3.00;;;;;;;;;;4936289;29;20557;-66
2022/06/14 00:34:44;;;;;;;3.73;3.43;;;;;;;;;;4936407;29;20478;-66
2022/06/14 00:37:14;;;;;;;3.70;3.50;;;;;;;;;;4935081;29;20874;-67
2022/06/14 00:39:40;;;;;;;3.30;2.97;;;;;;;;;;4936312;29;20835;-67
2022/06/14 00:42:06;;;;;;;3.40;3.20;;;;;;;;;;4936295;29;20519;-66
2022/06/14 00:44:32;;;;;;;3.83;3.37;;;;;;;;;;4936272;29;20419;-67
2022/06/14 00:47:01;;;;;;;4.10;3.50;;;;;;;;;;4936197;29;20470;-67
2022/06/14 00:49:34;;;;;;;3.80;3.60;;;;;;;;;;4936157;29;20429;-67
2022/06/14 00:52:03;;;;;;;7.07;3.20;;;;;;;;;;4934854;29;20427;-66
2022/06/14 00:54:33;;;;;;;6.00;2.77;;;;;;;;;;4936084;29;20911;-66
2022/06/14 00:57:04;;;;;;;3.50;3.23;;;;;;;;;;4936046;29;20918;-66
2022/06/14 00:59:35;;;;;;;3.90;3.57;;;;;;;;;;4936150;29;20440;-67
2022/06/14 01:02:09;;;;;;;3.57;3.47;;;;;;;;;;4935940;29;20561;-66
2022/06/14 01:04:35;;;;;;;3.60;3.30;;;;;;;;;;4936019;29;20410;-67
2022/06/14 01:07:06;;;;;;;3.27;3.13;;;;;;;;;;4939416;29;20412;-66
2022/06/14 01:09:36;;;;;;;3.80;3.60;;;;;;;;;;4939769;29;20430;-66
2022/06/14 01:12:05;;;;;;;5.60;3.40;;;;;;;;;;4939851;29;20491;-66
2022/06/14 01:14:35;;;;;;;11.50;3.50;;;;;;;;;;4939825;29;20425;-66
2022/06/14 01:17:01;;;;;;;3.80;3.00;;;;;;;;;;4939673;29;20438;-66
2022/06/14 01:19:27;;;;;;;4.60;3.13;;;;;;;;;;4939682;29;20447;-67
2022/06/14 01:22:13;;;;;;;3.80;3.60;;;;;;;;;;4939555;29;20474;-66
2022/06/14 01:24:42;;;;;;;3.53;3.03;;;;;;;;;;4939470;29;20416;-67
2022/06/14 01:27:09;;;;;;;4.07;3.17;;;;;;;;;;4939590;29;20552;-66
2022/06/14 01:29:37;;;;;;;3.80;3.50;;;;;;;;;;4939532;29;20447;-66
2022/06/14 01:32:05;;;;;;;5.03;3.50;;;;;;;;;;4939201;29;20559;-67
2022/06/14 01:34:31;;;;;;;8.30;3.70;;;;;;;;;;4939409;29;20876;-67
2022/06/14 01:37:00;;;;;;;3.90;2.83;;;;;;;;;;4939344;29;20422;-66
2022/06/14 01:39:27;;;;;;;3.13;3.03;;;;;;;;;;4938079;29;20429;-65
2022/06/14 01:41:59;;;;;;;3.90;3.67;;;;;;;;;;4939251;29;20838;-66
2022/06/14 01:44:25;;;;;;;4.13;3.93;;;;;;;;;;4939212;29;20887;-66
2022/06/14 01:47:02;;;;;;;7.43;3.87;;;;;;;;;;4939120;29;20441;-66
2022/06/14 01:52:30;;;;;;;3.40;3.20;;;;;;;;;;4939265;29;20399;-65
2022/06/14 01:54:56;;;;;;;3.60;3.10;;;;;;;;;;4939024;29;20431;-65
2022/06/14 01:57:32;;;;;;;3.27;3.17;;;;;;;;;;4939043;29;20409;-66
2022/06/14 02:00:10;;;;;;;4.93;4.10;;;;;;;;;;4938835;29;20417;-65
2022/06/14 02:02:45;;;;;;;4.23;3.73;;;;;;;;;;4938878;29;20431;-65
2022/06/14 02:05:24;;;;;;;4.47;3.40;;;;;;;;;;4938781;29;20398;-65
2022/06/14 02:08:13;;;;;;;4.23;3.70;;;;;;;;;;4938898;29;20409;-65
2022/06/14 02:10:57;;;;;;;4.57;3.60;;;;;;;;;;4931578;29;20444;-65
2022/06/14 02:13:32;;;;;;;4.17;3.80;;;;;;;;;;4939352;29;20404;-65
2022/06/14 02:16:05;;;;;;;4.43;4.10;;;;;;;;;;4938723;29;20408;-66
2022/06/14 02:18:40;;;;;;;4.30;3.93;;;;;;;;;;4937834;29;20405;-67
2022/06/14 02:21:24;;;;;;;3.90;3.60;;;;;;;;;;4938455;29;20475;-66
2022/06/14 02:23:55;;;;;;;7.87;3.60;;;;;;;;;;4938494;29;20400;-66
2022/06/14 02:26:24;;;;;;;9.00;3.97;;;;;;;;;;4938523;29;20409;-66
2022/06/14 02:28:53;;;;;;;4.30;4.00;;;;;;;;;;4938538;29;20459;-66
2022/06/14 02:31:24;;;;;;;4.57;4.30;;;;;;;;;;4938254;29;20467;-66
2022/06/14 02:33:57;;;;;;;4.27;3.83;;;;;;;;;;4938347;29;20869;-66
2022/06/14 02:36:29;;;;;;;6.00;3.40;;;;;;;;;;4938375;29;20417;-66
2022/06/14 02:39:10;;;;;;;7.17;3.90;;;;;;;;;;4938523;29;20821;-67
2022/06/14 02:41:42;;;;;;;12.50;4.37;;;;;;;;;;4938132;29;20476;-67
2022/06/14 02:44:21;;;;;;;5.80;3.87;;;;;;;;;;4938229;29;20516;-67
2022/06/14 02:46:51;;;;;;;3.93;3.63;;;;;;;;;;4938120;29;20416;-66
2022/06/14 02:49:17;;;;;;;3.73;3.53;;;;;;;;;;4938065;29;20467;-66
2022/06/14 02:51:46;;;;;;;7.67;4.50;;;;;;;;;;4938078;29;20507;-66
2022/06/14 02:54:16;;;;;;;3.50;3.40;;;;;;;;;;4936815;29;20428;-66
2022/06/14 02:56:45;;;;;;;3.60;3.30;;;;;;;;;;4936657;29;20434;-65
2022/06/14 02:59:18;;;;;;;3.70;3.50;;;;;;;;;;4937928;29;20448;-66
2022/06/14 03:01:45;;;;;;;4.63;4.23;;;;;;;;;;4937771;29;20494;-67
2022/06/14 03:04:17;;;;;;;4.07;3.77;;;;;;;;;;4937793;29;20412;-66
2022/06/14 03:06:51;;;;;;;4.13;3.83;;;;;;;;;;4937772;29;20492;-65
2022/06/14 03:09:24;;;;;;;3.87;3.77;;;;;;;;;;4937674;29;20464;-66
2022/06/14 03:11:58;;;;;;;3.97;3.50;;;;;;;;;;4937929;29;20400;-66
2022/06/14 03:14:27;;;;;;;4.07;3.77;;;;;;;;;;4937640;29;20423;-66
2022/06/14 03:16:59;;;;;;;3.87;3.63;;;;;;;;;;4937572;29;20412;-66
2022/06/14 03:19:28;;;;;;;6.50;3.87;;;;;;;;;;4937600;29;20757;-66
2022/06/14 03:21:57;;;;;;;4.63;4.20;;;;;;;;;;4937454;29;20468;-67
2022/06/14 03:24:23;;;;;;;5.87;3.37;;;;;;;;;;4937406;29;20416;-68
2022/06/14 03:27:08;;;;;;;3.80;3.60;;;;;;;;;;4937398;29;20409;-67
2022/06/14 03:29:44;;;;;;;6.43;3.53;;;;;;;;;;4936046;29;20515;-67
2022/06/14 03:32:16;;;;;;;3.63;3.43;;;;;;;;;;4937211;29;21046;-66
2022/06/14 03:34:45;;;;;;;8.30;4.00;;;;;;;;;;4937236;29;20815;-66
2022/06/14 03:37:11;;;;;;;3.90;3.70;;;;;;;;;;4937237;29;20413;-67
2022/06/14 03:39:39;;;;;;;4.57;3.90;;;;;;;;;;4937155;29;20431;-66
2022/06/14 03:42:07;;;;;;;5.80;4.50;;;;;;;;;;4937070;29;20471;-67
2022/06/14 03:44:33;;;;;;;4.70;4.30;;;;;;;;;;4937049;29;20480;-66
2022/06/14 03:47:15;;;;;;;5.20;4.63;;;;;;;;;;4937038;29;20892;-66
2022/06/14 03:50:07;;;;;;;7.87;5.00;;;;;;;;;;4937024;29;20428;-66
2022/06/14 03:52:53;;;;;;;7.33;6.83;;;;;;;;;;4934104;29;20488;-66
2022/06/14 03:55:54;;;;;;;9.40;6.73;;;;;;;;;;4936881;29;20424;-67
2022/06/14 03:58:32;;;;;;;8.70;5.80;;;;;;;;;;4878293;29;20434;-66
2022/06/14 04:01:01;;;;;;;5.67;5.10;;;;;;;;;;4929764;29;20830;-66
2022/06/14 04:03:47;;;;;;;5.53;5.10;;;;;;;;;;4936829;29;20463;-67
2022/06/14 04:06:48;;;;;;;7.10;6.40;;;;;;;;;;4936796;29;20406;-66
2022/06/14 04:09:14;;;;;;;6.10;5.70;;;;;;;;;;4878072;29;20487;-66
2022/06/14 04:11:59;;;;;;;7.90;6.47;;;;;;;;;;4923978;29;20825;-66
2022/06/14 04:14:31;;;;;;;9.17;6.50;;;;;;;;;;4936650;29;20428;-66
2022/06/14 04:17:16;;;;;;;13.13;6.10;;;;;;;;;;4936502;29;20492;-65
2022/06/14 04:20:00;;;;;;;6.27;5.60;;;;;;;;;;4936472;29;20415;-67
2022/06/14 04:22:41;;;;;;;6.20;5.63;;;;;;;;;;4936539;29;20428;-67
2022/06/14 04:25:10;;;;;;;10.80;6.57;;;;;;;;;;4935125;29;20437;-68
2022/06/14 04:27:43;;;;;;;16.03;6.03;;;;;;;;;;4936453;29;20417;-67
2022/06/14 04:30:14;;;;;;;11.30;6.30;;;;;;;;;;4936361;29;20417;-67
2022/06/14 04:32:53;;;;;;;13.60;6.43;;;;;;;;;;4936214;29;20480;-66
2022/06/14 04:35:19;;;;;;;7.63;6.50;;;;;;;;;;4936338;29;20410;-67
2022/06/14 04:37:51;;;;;;;12.60;6.40;;;;;;;;;;4936427;29;20424;-67
2022/06/14 04:40:37;;;;;;;7.57;6.23;;;;;;;;;;4935680;29;20770;-68
2022/06/14 04:43:24;;;;;;;15.00;7.07;;;;;;;;;;4936132;29;20548;-67
2022/06/14 04:45:56;;;;;;;8.37;5.90;;;;;;;;;;4936188;29;20440;-66
2022/06/14 04:48:31;;;;;;;9.73;6.03;;;;;;;;;;4936251;29;20409;-68
2022/06/14 04:51:01;;;;;;;11.83;6.07;;;;;;;;;;4936172;29;20401;-66
2022/06/14 04:53:31;;;;;;;7.57;5.93;;;;;;;;;;4936097;29;20547;-67
2022/06/14 04:56:01;;;;;;;7.67;6.73;;;;;;;;;;4936206;29;20767;-67
2022/06/14 04:58:31;;;;;;;8.60;6.43;;;;;;;;;;4936157;29;20408;-67
2022/06/14 05:00:59;;;;;;;9.33;6.80;;;;;;;;;;4936016;29;20465;-67
2022/06/14 05:03:43;;;;;;;6.80;6.10;;;;;;;;;;4936055;29;20502;-67
2022/06/14 05:06:13;;;;;;;6.73;6.13;;;;;;;;;;4936049;29;20406;-66
2022/06/14 05:08:39;;;;;;;6.93;6.23;;;;;;;;;;4936087;29;20954;-66
2022/06/14 05:11:05;;;;;;;6.57;5.90;;;;;;;;;;4935998;29;20424;-68
2022/06/14 05:13:30;;;;;;;10.97;7.03;;;;;;;;;;4935993;29;20413;-67
2022/06/14 05:16:04;;;;;;;9.70;7.43;;;;;;;;;;4935913;29;20400;-67
2022/06/14 05:18:36;;;;;;;8.03;6.37;;;;;;;;;;4935934;29;20409;-66
2022/06/14 05:21:08;;;;;;;8.80;7.23;;;;;;;;;;4935798;29;20889;-67
2022/06/14 05:23:36;;;;;;;8.40;6.07;;;;;;;;;;4935872;29;20412;-67
2022/06/14 05:26:21;;;;;;;10.80;6.93;;;;;;;;;;4935844;29;20422;-67
2022/06/14 05:29:02;;;;;;;7.37;6.67;;;;;;;;;;4936071;29;20413;-67
2022/06/14 05:31:28;;;;;;;10.40;6.90;;;;;;;;;;4935643;29;20402;-67
2022/06/14 05:34:04;;;;;;;14.93;7.20;;;;;;;;;;4935821;29;20842;-68
2022/06/14 05:36:34;;;;;;;13.77;7.30;;;;;;;;;;4935732;29;20437;-67
2022/06/14 05:39:02;;;;;;;14.23;7.40;;;;;;;;;;4935696;29;20413;-67
2022/06/14 05:41:32;;;;;;;9.87;6.93;;;;;;;;;;4935861;29;20548;-67
2022/06/14 05:44:03;;;;;;;11.80;7.30;;;;;;;;;;4934507;29;20805;-67
2022/06/14 05:46:32;;;;;;;7.23;6.63;;;;;;;;;;4935649;29;20409;-66
2022/06/14 05:49:01;;;;;;;12.80;7.37;;;;;;;;;;4935638;29;20910;-67
2022/06/14 05:51:30;;;;;;;7.37;6.20;;;;;;;;;;4934457;29;20456;-66
2022/06/14 05:54:04;;;;;;;8.70;6.60;;;;;;;;;;4938598;29;20953;-66
2022/06/14 05:56:35;;;;;;;7.80;7.00;;;;;;;;;;4939087;29;20418;-66
2022/06/14 05:59:05;;;;;;;13.73;7.33;;;;;;;;;;4939135;29;20414;-66
2022/06/14 06:01:33;;;;;;;8.63;7.10;;;;;;;;;;4938953;29;20988;-68
2022/06/14 06:04:11;;;;;;;8.50;6.80;;;;;;;;;;4937908;29;20789;-66
2022/06/14 06:06:42;;;;;;;8.37;7.57;;;;;;;;;;4938899;29;20473;-66
2022/06/14 06:09:08;;;;;;;8.53;6.97;;;;;;;;;;4938713;29;20418;-66
2022/06/14 06:11:43;;;;;;;7.50;6.80;;;;;;;;;;4938849;29;20467;-67
2022/06/14 06:14:15;;;;;;;10.30;7.00;;;;;;;;;;4938715;29;20426;-68
2022/06/14 06:19:21;;;;;;;12.20;7.37;;;;;;;;;;4938868;29;20414;-67
2022/06/14 06:21:53;;;;;;;13.07;5.90;;;;;;;;;;4938587;29;20574;-67
2022/06/14 06:24:25;;;;;;;7.90;6.50;;;;;;;;;;4938502;29;20426;-67
2022/06/14 06:26:58;;;;;;;11.83;6.73;;;;;;;;;;4938530;29;20427;-67
2022/06/14 06:29:27;;;;;;;7.13;6.53;;;;;;;;;;4937213;29;20831;-68
2022/06/14 06:31:54;;;;;;;9.77;6.97;;;;;;;;;;4938311;29;20482;-68
2022/06/14 06:34:20;;;;;;;11.17;7.73;;;;;;;;;;4938295;29;20895;-68
2022/06/14 06:37:06;;;;;;;8.17;7.30;;;;;;;;;;4938413;29;20471;-68
2022/06/14 06:39:38;;;;;;;8.07;7.07;;;;;;;;;;4927098;29;20438;-68
2022/06/14 06:42:24;;;;;;;7.67;6.60;;;;;;;;;;4938226;29;20478;-68
2022/06/14 06:44:50;;;;;;;17.23;7.00;;;;;;;;;;4938033;29;20442;-68
2022/06/14 06:47:36;;;;;;;8.50;6.37;;;;;;;;;;4938176;29;20412;-68
2022/06/14 06:50:02;;;;;;;9.87;6.10;;;;;;;;;;4926910;29;20438;-66
2022/06/14 06:52:36;;;;;;;8.03;6.20;;;;;;;;;;4938056;29;20777;-67
2022/06/14 06:55:06;;;;;;;12.23;6.90;;;;;;;;;;4937972;29;20780;-65
2022/06/14 06:57:34;;;;;;;8.03;6.53;;;;;;;;;;4936728;29;20439;-68
2022/06/14 07:00:03;;;;;;;13.23;6.50;;;;;;;;;;4937867;29;20420;-65
2022/06/14 07:02:44;;;;;;;10.80;6.97;;;;;;;;;;4937878;29;20866;-66
2022/06/14 07:05:14;;;;;;;8.73;5.70;;;;;;;;;;4937676;29;20515;-67
2022/06/14 07:07:59;;;;;;;8.67;6.00;;;;;;;;;;4937782;29;20448;-66
2022/06/14 07:10:40;;;;;;;9.33;6.07;;;;;;;;;;4937706;29;21027;-67
2022/06/14 07:13:05;;;;;;;10.47;5.87;;;;;;;;;;4937661;29;20869;-66
2022/06/14 07:15:37;;;;;;;19.63;6.90;;;;;;;;;;4937717;29;20416;-67
2022/06/14 07:18:03;;;;;;;10.73;5.43;;;;;;;;;;4937530;29;20424;-67
2022/06/14 07:20:35;;;;;;;9.67;5.90;;;;;;;;;;4937368;29;20518;-67
2022/06/14 07:23:09;;;;;;;7.87;5.93;;;;;;;;;;4937483;29;20512;-68
2022/06/14 07:25:48;;;;;;;8.57;5.67;;;;;;;;;;4937470;29;20915;-66
2022/06/14 07:28:14;;;;;;;9.37;5.83;;;;;;;;;;4937329;29;20412;-68
2022/06/14 07:30:45;;;;;;;6.53;5.40;;;;;;;;;;4937235;29;20416;-68
2022/06/14 07:33:12;;;;;;;7.10;6.50;;;;;;;;;;4937094;29;20460;-67
2022/06/14 07:35:51;;;;;;;11.27;7.20;;;;;;;;;;4937173;29;20404;-67
2022/06/14 07:38:28;;;;;;;11.80;6.77;;;;;;;;;;4935853;29;20802;-67
2022/06/14 07:40:59;;;;;;;9.07;6.50;;;;;;;;;;4937056;29;20476;-66
2022/06/14 07:43:33;;;;;;;6.33;5.80;;;;;;;;;;4937102;29;20497;-67
2022/06/14 07:46:04;;;;;;;7.30;6.43;;;;;;;;;;4935834;29;20466;-67
2022/06/14 07:48:45;;;;;;;8.80;6.40;;;;;;;;;;4936991;29;20449;-67
2022/06/14 07:51:33;;;;;;;7.10;6.27;;;;;;;;;;4936992;29;20414;-66
2022/06/14 07:54:05;;;;;;;6.50;5.30;;;;;;;;;;4936696;29;20434;-68
2022/06/14 07:56:33;;;;;;;9.53;5.37;;;;;;;;;;4935672;29;20427;-66
2022/06/14 07:59:03;;;;;;;9.20;5.70;;;;;;;;;;4936953;29;20417;-65
2022/06/14 08:01:33;;;;;;;7.63;5.77;;;;;;;;;;4936756;29;20483;-66
2022/06/14 08:04:06;;;;;;;18.50;6.50;;;;;;;;;;4935409;29;20785;-66
2022/06/14 08:06:35;;;;;;;9.33;6.50;;;;;;;;;;4935386;29;20983;-67
2022/06/14 08:09:11;;;;;;;12.13;6.20;;;;;;;;;;4936544;29;20455;-67
2022/06/14 08:11:40;;;;;;;7.30;6.20;;;;;;;;;;4936615;29;20559;-67
2022/06/14 08:14:09;;;;;;;10.33;5.93;;;;;;;;;;4935305;29;20424;-67
2022/06/14 08:16:36;;;;;;;9.00;5.80;;;;;;;;;;4936057;29;20419;-66
2022/06/14 08:19:08;;;;;;;5.87;5.10;;;;;;;;;;4936499;29;20493;-67
2022/06/14 08:21:40;;;;;;;7.43;5.47;;;;;;;;;;4936456;29;20480;-67
2022/06/14 08:24:12;;;;;;;6.83;4.90;;;;;;;;;;4936440;29;20415;-67
2022/06/14 08:26:39;;;;;;;7.07;5.90;;;;;;;;;;4936507;29;20416;-67
2022/06/14 08:29:05;;;;;;;9.20;5.07;;;;;;;;;;4936728;29;20518;-67
2022/06/14 08:31:39;;;;;;;6.33;5.63;;;;;;;;;;4936249;29;20511;-66
2022/06/14 08:34:15;;;;;;;7.13;6.00;;;;;;;;;;4936335;29;20413;-67
2022/06/14 08:36:45;;;;;;;6.80;4.80;;;;;;;;;;4936399;29;20948;-66
2022/06/14 08:39:16;;;;;;;9.77;5.97;;;;;;;;;;4936234;29;20903;-67
2022/06/14 08:41:45;;;;;;;6.47;4.83;;;;;;;;;;4936217;29;20839;-67
2022/06/14 08:44:19;;;;;;;7.13;5.13;;;;;;;;;;4936263;29;20763;-66
2022/06/14 08:46:55;;;;;;;6.63;4.90;;;;;;;;;;4936162;29;20935;-67
2022/06/14 08:49:21;;;;;;;6.20;5.63;;;;;;;;;;4936234;29;21016;-67
2022/06/14 08:51:56;;;;;;;7.63;4.87;;;;;;;;;;4936127;29;20501;-67
2022/06/14 08:54:22;;;;;;;7.83;5.30;;;;;;;;;;4936057;29;20412;-67
2022/06/14 08:56:48;;;;;;;9.87;5.40;;;;;;;;;;4936083;29;20778;-66
2022/06/14 08:59:17;;;;;;;5.93;5.00;;;;;;;;;;4935961;29;20414;-67
2022/06/14 09:01:43;;;;;;;7.00;5.37;;;;;;;;;;4936009;29;20593;-66
2022/06/14 09:04:18;;;;;;;6.27;4.87;;;;;;;;;;4936074;29;20438;-66
2022/06/14 09:07:03;;;;;;;9.93;4.80;;;;;;;;;;4934785;29;20473;-66
2022/06/14 09:09:45;;;;;;;5.40;4.90;;;;;;;;;;4935940;29;20538;-66
2022/06/14 09:12:43;;;;;;;8.97;4.70;;;;;;;;;;4936046;29;20546;-66
2022/06/14 09:15:27;;;;;;;9.50;4.83;;;;;;;;;;4904176;29;20432;-67
2022/06/14 09:17:56;;;;;;;16.37;5.50;;;;;;;;;;4936000;29;20423;-67
2022/06/14 09:20:42;;;;;;;4.40;4.20;;;;;;;;;;4934587;29;20434;-66
2022/06/14 09:23:34;;;;;;;7.70;4.40;;;;;;;;;;4935935;29;20525;-67
2022/06/14 09:26:10;;;;;;;4.30;3.93;;;;;;;;;;4933418;29;20438;-67
2022/06/14 09:28:38;;;;;;;5.07;4.47;;;;;;;;;;4939716;29;20498;-66
2022/06/14 09:31:14;;;;;;;9.50;4.63;;;;;;;;;;4938328;29;20451;-66
2022/06/14 09:33:46;;;;;;;5.57;4.30;;;;;;;;;;4939424;29;20463;-67
2022/06/14 09:36:12;;;;;;;4.37;4.03;;;;;;;;;;4939530;29;20407;-67
2022/06/14 09:38:38;;;;;;;5.43;3.90;;;;;;;;;;4939357;29;20457;-66
2022/06/14 09:41:19;;;;;;;11.97;4.10;;;;;;;;;;4939224;29;20479;-66
2022/06/14 09:44:14;;;;;;;4.53;4.10;;;;;;;;;;4939307;29;20434;-67
2022/06/14 09:46:59;;;;;;;6.20;3.93;;;;;;;;;;4887830;29;20424;-68
2022/06/14 09:49:44;;;;;;;5.10;3.30;;;;;;;;;;4939241;29;20414;-66
2022/06/14 09:52:28;;;;;;;3.73;3.50;;;;;;;;;;4939104;29;20464;-66
2022/06/14 09:55:10;;;;;;;3.90;3.60;;;;;;;;;;4939082;29;20427;-66
2022/06/14 09:57:54;;;;;;;3.90;3.50;;;;;;;;;;4938984;29;20402;-67
2022/06/14 10:00:25;;;;;;;4.50;3.93;;;;;;;;;;4938875;29;20412;-65
2022/06/14 10:03:06;;;;;;;3.53;3.23;;;;;;;;;;4938937;29;20522;-67
2022/06/14 10:05:50;;;;;;;7.90;3.10;;;;;;;;;;4937638;29;20431;-65
2022/06/14 10:08:23;;;;;;;3.27;2.97;;;;;;;;;;4937626;29;20420;-65
2022/06/14 10:10:55;;;;;;;4.37;3.17;;;;;;;;;;4938611;29;20895;-67
2022/06/14 10:13:24;;;;;;;5.23;2.80;;;;;;;;;;4938817;29;20446;-65
2022/06/14 10:15:50;;;;;;;3.40;2.90;;;;;;;;;;4938711;29;20417;-66
2022/06/14 10:18:16;;;;;;;3.40;3.20;;;;;;;;;;4938714;29;20429;-66
2022/06/14 10:21:01;;;;;;;3.43;3.13;;;;;;;;;;4938586;29;20511;-66
2022/06/14 10:23:46;;;;;;;4.20;3.50;;;;;;;;;;4938651;29;20417;-67
2022/06/14 10:29:39;;;;;;;4.90;4.00;;;;;;;;;;4938490;29;20852;-66
2022/06/14 10:32:05;;;;;;;6.70;2.97;;;;;;;;;;4938204;29;20470;-66
2022/06/14 10:34:34;;;;;;;4.43;3.30;;;;;;;;;;4937172;29;20430;-66
2022/06/14 10:37:03;;;;;;;6.37;3.83;;;;;;;;;;4937140;29;20504;-66
2022/06/14 10:39:47;;;;;;;2.70;2.70;;;;;;;;;;4937625;29;20434;-65
2022/06/14 10:42:18;;;;;;;4.73;3.30;;;;;;;;;;4938178;29;20470;-67
2022/06/14 10:44:59;;;;;;;3.40;3.10;;;;;;;;;;4938487;29;20796;-67
2022/06/14 10:47:40;;;;;;;5.43;3.40;;;;;;;;;;4938157;29;20909;-65
2022/06/14 10:50:12;;;;;;;4.40;3.27;;;;;;;;;;4938162;29;20405;-67
2022/06/14 10:52:49;;;;;;;5.10;4.13;;;;;;;;;;4938112;29;20404;-66
2022/06/14 10:55:18;;;;;;;5.23;3.57;;;;;;;;;;4937954;29;20502;-69
2022/06/14 10:57:44;;;;;;;9.97;3.37;;;;;;;;;;4937934;29;20913;-66
2022/06/14 11:00:13;;;;;;;3.57;3.33;;;;;;;;;;4936694;29;20426;-68
2022/06/14 11:02:58;;;;;;;3.70;3.37;;;;;;;;;;4937834;29;20502;-71
2022/06/14 11:05:24;;;;;;;5.90;3.60;;;;;;;;;;4938143;29;20406;-71
2022/06/14 11:07:56;;;;;;;3.50;3.30;;;;;;;;;;4937824;29;20909;-71
2022/06/14 11:10:37;;;;;;;3.43;3.13;;;;;;;;;;4937733;29;20414;-69
2022/06/14 11:13:10;;;;;;;4.77;3.20;;;;;;;;;;4937688;29;20416;-69
2022/06/14 11:15:53;;;;;;;3.20;2.83;;;;;;;;;;4937964;29;20494;-69
2022/06/14 11:18:19;;;;;;;3.27;2.97;;;;;;;;;;4937658;29;20415;-69
2022/06/14 11:21:04;;;;;;;4.93;3.13;;;;;;;;;;4937556;29;20483;-66
2022/06/14 11:23:30;;;;;;;3.50;3.30;;;;;;;;;;4937634;29;20795;-66
2022/06/14 11:26:06;;;;;;;3.43;3.23;;;;;;;;;;4937390;29;20417;-68
2022/06/14 11:28:44;;;;;;;4.47;4.07;;;;;;;;;;4936269;29;20255;-67
2022/06/14 11:31:16;;;;;;;3.43;3.13;;;;;;;;;;4937378;29;20413;-67
2022/06/14 11:33:55;;;;;;;6.57;3.50;;;;;;;;;;4936476;29;20948;-67
2022/06/14 11:36:35;;;;;;;2.97;2.70;;;;;;;;;;4936287;29;20428;-67
2022/06/14 11:39:19;;;;;;;3.70;3.13;;;;;;;;;;4937537;29;20434;-69
2022/06/14 11:41:47;;;;;;;7.13;3.30;;;;;;;;;;4937113;29;20467;-68
2022/06/14 11:44:24;;;;;;;5.70;3.63;;;;;;;;;;4937441;29;20405;-69
2022/06/14 11:47:15;;;;;;;2.97;2.87;;;;;;;;;;4937074;29;20418;-67
2022/06/14 11:49:48;;;;;;;3.60;3.30;;;;;;;;;;4936234;29;20412;-68
2022/06/14 11:52:24;;;;;;;3.53;2.90;;;;;;;;;;4936995;29;20420;-66
2022/06/14 11:55:10;;;;;;;3.30;3.07;;;;;;;;;;4936846;29;20412;-69
2022/06/14 11:57:58;;;;;;;2.93;2.70;;;;;;;;;;4936718;29;20428;-65
2022/06/14 12:00:50;;;;;;;5.80;3.10;;;;;;;;;;4936854;29;20427;-67
2022/06/14 12:03:49;;;;;;;7.73;3.27;;;;;;;;;;4914784;29;20433;-67
2022/06/14 12:06:25;;;;;;;3.53;3.00;;;;;;;;;;4904897;29;20503;-68
2022/06/14 12:08:51;;;;;;;4.00;2.87;;;;;;;;;;4936626;29;20421;-66
2022/06/14 12:11:31;;;;;;;3.33;3.07;;;;;;;;;;4936688;29;20432;-66
2022/06/14 12:13:57;;;;;;;3.43;2.80;;;;;;;;;;4936723;29;20206;-65
2022/06/14 12:16:38;;;;;;;3.03;2.83;;;;;;;;;;4936565;29;20409;-67
2022/06/14 12:19:08;;;;;;;2.97;2.50;;;;;;;;;;4936579;29;20916;-67
2022/06/14 12:21:53;;;;;;;6.00;3.00;;;;;;;;;;4936537;29;20472;-68
2022/06/14 12:24:21;;;;;;;2.60;2.50;;;;;;;;;;4936442;29;20405;-67
2022/06/14 12:26:47;;;;;;;3.20;2.97;;;;;;;;;;4936494;29;20409;-67
2022/06/14 12:29:25;;;;;;;5.40;2.63;;;;;;;;;;4936457;29;20392;-67
2022/06/14 12:31:51;;;;;;;5.00;2.80;;;;;;;;;;4936233;29;20482;-67
2022/06/14 12:34:17;;;;;;;2.80;2.60;;;;;;;;;;4936362;29;20413;-68
2022/06/14 12:36:43;;;;;;;2.60;2.50;;;;;;;;;;4936418;29;20200;-66
2022/06/14 12:39:16;;;;;;;2.90;2.80;;;;;;;;;;4936335;29;20442;-67
2022/06/14 12:41:55;;;;;;;3.43;2.40;;;;;;;;;;4936235;29;20219;-68
2022/06/14 12:44:30;;;;;;;4.80;2.83;;;;;;;;;;4936288;29;20895;-69
2022/06/14 12:46:56;;;;;;;4.57;2.83;;;;;;;;;;4936214;29;20416;-70
2022/06/14 12:49:32;;;;;;;3.83;2.53;;;;;;;;;;4936280;29;20436;-68
2022/06/14 12:52:02;;;;;;;3.00;2.63;;;;;;;;;;4936184;29;20490;-69
2022/06/14 12:54:47;;;;;;;3.83;3.23;;;;;;;;;;4936133;29;20401;-67
2022/06/14 12:57:18;;;;;;;3.60;2.93;;;;;;;;;;4936180;29;20405;-66
2022/06/14 12:59:43;;;;;;;8.80;2.87;;;;;;;;;;4936064;29;20408;-67
2022/06/14 13:02:28;;;;;;;3.70;3.40;;;;;;;;;;4938191;29;21038;-68
2022/06/14 13:05:01;;;;;;;2.90;2.70;;;;;;;;;;4940073;29;20176;-66
2022/06/14 13:07:46;;;;;;;4.73;2.70;;;;;;;;;;4938757;29;20912;-65
2022/06/14 13:10:30;;;;;;;2.77;2.57;;;;;;;;;;4939840;29;20994;-66
2022/06/14 13:13:22;;;;;;;3.27;2.80;;;;;;;;;;4939883;29;20412;-67
2022/06/14 13:15:54;;;;;;;4.03;3.30;;;;;;;;;;4917679;29;20920;-66
2022/06/14 13:18:23;;;;;;;2.20;2.10;;;;;;;;;;4939829;29;20474;-66
2022/06/14 13:20:58;;;;;;;3.00;2.53;;;;;;;;;;4939727;29;20463;-66
2022/06/14 13:23:27;;;;;;;2.97;2.77;;;;;;;;;;4939714;29;20463;-66
2022/06/14 13:26:12;;;;;;;5.83;3.10;;;;;;;;;;4939617;29;20412;-66
2022/06/14 13:28:44;;;;;;;3.07;2.97;;;;;;;;;;4939677;29;20456;-66
2022/06/14 13:31:30;;;;;;;4.10;3.10;;;;;;;;;;4939482;29;20425;-67
2022/06/14 13:34:05;;;;;;;2.93;2.80;;;;;;;;;;4938327;29;20451;-67
2022/06/14 13:36:50;;;;;;;3.30;3.00;;;;;;;;;;4939777;29;20404;-67
2022/06/14 13:39:35;;;;;;;3.47;3.07;;;;;;;;;;4939445;29;20416;-66
2022/06/14 13:42:24;;;;;;;4.00;3.10;;;;;;;;;;4938073;29;20848;-65
2022/06/14 13:44:51;;;;;;;5.20;2.83;;;;;;;;;;4932071;29;20467;-66
2022/06/14 13:47:26;;;;;;;7.33;3.47;;;;;;;;;;4938040;29;20480;-67
2022/06/14 13:49:58;;;;;;;2.90;2.70;;;;;;;;;;4939461;29;20408;-66
2022/06/14 13:52:26;;;;;;;3.50;3.07;;;;;;;;;;4939199;29;20880;-67
2022/06/14 13:54:58;;;;;;;4.00;2.60;;;;;;;;;;4939092;29;20419;-66
2022/06/14 13:57:47;;;;;;;3.17;2.87;;;;;;;;;;4939148;29;20412;-66
2022/06/14 14:00:22;;;;;;;3.67;3.00;;;;;;;;;;4939079;29;20413;-65
2022/06/14 14:02:57;;;;;;;3.53;2.93;;;;;;;;;;4939017;29;20771;-66
2022/06/14 14:05:28;;;;;;;3.90;3.03;;;;;;;;;;4939015;29;20444;-65
2022/06/14 14:07:56;;;;;;;3.90;2.80;;;;;;;;;;4938984;29;20432;-65
2022/06/14 14:10:32;;;;;;;4.13;3.10;;;;;;;;;;4938886;29;20424;-66
2022/06/14 14:13:06;;;;;;;4.13;3.00;;;;;;;;;;4937943;29;20424;-66
2022/06/14 14:15:50;;;;;;;4.37;3.27;;;;;;;;;;4937641;29;20421;-65
2022/06/14 14:18:26;;;;;;;3.70;3.20;;;;;;;;;;4938717;29;20412;-66
2022/06/14 14:20:55;;;;;;;2.73;2.60;;;;;;;;;;4938610;29;20462;-66
2022/06/14 14:23:40;;;;;;;3.60;3.30;;;;;;;;;;4938661;29;20908;-67
2022/06/14 14:26:25;;;;;;;3.87;3.50;;;;;;;;;;4938520;29;20416;-66
2022/06/14 14:29:00;;;;;;;3.33;2.80;;;;;;;;;;4937270;29;20930;-66
2022/06/14 14:31:26;;;;;;;3.50;2.53;;;;;;;;;;4937163;29;20848;-66
2022/06/14 14:34:15;;;;;;;4.60;2.97;;;;;;;;;;4938432;29;20459;-65
2022/06/14 14:37:00;;;;;;;3.73;2.80;;;;;;;;;;4911274;29;20197;-67
2022/06/14 14:39:31;;;;;;;3.27;3.07;;;;;;;;;;4938550;29;20812;-68
2022/06/14 14:41:57;;;;;;;5.70;3.27;;;;;;;;;;4938298;29;20503;-66
2022/06/14 14:44:26;;;;;;;3.80;2.50;;;;;;;;;;4938245;29;20464;-65
2022/06/14 14:46:56;;;;;;;4.00;3.27;;;;;;;;;;4938201;29;20173;-66
2022/06/14 14:49:42;;;;;;;3.40;3.10;;;;;;;;;;4938128;29;20405;-65
2022/06/14 14:52:08;;;;;;;2.90;2.70;;;;;;;;;;4936462;29;20804;-65
2022/06/14 14:54:49;;;;;;;3.20;2.83;;;;;;;;;;4938052;29;20431;-65
2022/06/14 14:57:28;;;;;;;5.37;3.60;;;;;;;;;;4938024;29;20168;-65
2022/06/14 14:59:59;;;;;;;2.83;2.73;;;;;;;;;;4938067;29;20420;-65
2022/06/14 15:05:30;;;;;;;3.13;2.93;;;;;;;;;;4937976;29;20439;-66
2022/06/14 15:08:28;;;;;;;3.30;3.10;;;;;;;;;;4937886;29;20405;-65
2022/06/14 15:10:54;;;;;;;3.40;3.10;;;;;;;;;;4905871;29;20480;-67
2022/06/14 15:13:39;;;;;;;5.47;3.30;;;;;;;;;;4937737;29;20413;-67
2022/06/14 15:16:13;;;;;;;3.17;2.83;;;;;;;;;;4936431;29;20504;-67
2022/06/14 15:21:27;;;;;;;4.40;3.10;;;;;;;;;;4937520;29;20482;-66
2022/06/14 15:23:57;;;;;;;5.93;3.27;;;;;;;;;;4937261;29;20409;-65
2022/06/14 15:26:24;;;;;;;6.13;2.90;;;;;;;;;;4937535;29;20413;-64
2022/06/14 15:28:51;;;;;;;5.63;2.93;;;;;;;;;;4937475;29;20420;-65
2022/06/14 15:31:26;;;;;;;4.30;3.30;;;;;;;;;;4937153;29;20551;-65
2022/06/14 15:33:53;;;;;;;5.20;3.40;;;;;;;;;;4937317;29;20417;-64
2022/06/14 15:36:27;;;;;;;3.10;3.00;;;;;;;;;;4937372;29;20795;-66